LFLN/SYT METAR and TAF weather

Enter ICAO airport designator
Station Type Date Time Source
LFLN METAR 2021/09/16 11:30 UTC NOAA

LFLN 161130Z AUTO VRB02KT 9999 ///CB 22/17 Q1017 TEMPO 3000 SHRA


Station Type Date Time Source
LFLN Decoded METAR 2021/09/16 11:30 UTC NOAA

Saint-Yan, France (LFLN) 46-25N 004-01E 244M
Sep 16, 2021 - 07:30 AM EDT / 2021.09.16 1130 UTC
Wind: Variable at 2 MPH (2 KT):0
Visibility: greater than 7 mile(s):0
Weather: Cumulonimbus clouds observed
Temperature: 71 F (22 C)
Dew Point: 62 F (17 C)
Relative Humidity: 73%
Pressure (altimeter): 30.03 in. Hg (1017 hPa)
ob: LFLN 161130Z AUTO VRB02KT 9999 ///CB 22/17 Q1017 TEMPO 3000 SHRA
cycle: 11

Station Type Date Time Source
LFLN TAF UTC NOAA

Error!

Example: see airport list